createdAt,value
2022-08-14T00:00:02.970Z,18.1
2022-08-14T00:01:02.981Z,18.1
2022-08-14T00:02:03.222Z,18.07
2022-08-14T00:03:02.993Z,18.14
2022-08-14T00:04:02.985Z,18.17
2022-08-14T00:05:02.993Z,18.17
2022-08-14T00:06:02.986Z,18.1
2022-08-14T00:07:02.981Z,18.1
2022-08-14T00:08:02.982Z,18
2022-08-14T00:09:02.988Z,18
2022-08-14T00:10:50.475Z,17.97
2022-08-14T00:11:02.982Z,17.99
2022-08-14T00:12:02.986Z,18.08
2022-08-14T00:13:05.027Z,18.73
2022-08-14T00:14:02.997Z,18.06
2022-08-14T00:15:03.129Z,18.06
2022-08-14T00:16:02.977Z,18.01
2022-08-14T00:17:02.977Z,17.97
2022-08-14T00:18:03.004Z,17.97
2022-08-14T00:19:06.841Z,17.8
2022-08-14T00:20:02.977Z,17.75
2022-08-14T00:21:03.120Z,17.85
2022-08-14T00:22:02.977Z,17.77
2022-08-14T00:23:12.620Z,17.64
2022-08-14T00:24:02.996Z,17.57
2022-08-14T00:25:02.986Z,17.52
2022-08-14T00:26:06.821Z,17.52
2022-08-14T00:27:02.980Z,17.48
2022-08-14T00:28:02.983Z,17.51
2022-08-14T00:29:03.012Z,17.42
2022-08-14T00:30:02.981Z,17.39
2022-08-14T00:31:02.984Z,17.39
2022-08-14T00:32:03.000Z,17.39
2022-08-14T00:33:14.561Z,17.41
2022-08-14T00:34:36.830Z,17.36
2022-08-14T00:35:02.976Z,17.36
2022-08-14T00:36:35.754Z,17.36
2022-08-14T00:37:02.988Z,17.36
2022-08-14T00:38:02.991Z,17.44
2022-08-14T00:39:03.003Z,17.47
2022-08-14T00:40:03.059Z,17.48
2022-08-14T00:41:02.993Z,17.53
2022-08-14T00:42:02.982Z,17.54
2022-08-14T00:43:03.228Z,17.53
2022-08-14T00:44:03.005Z,17.6
2022-08-14T00:45:02.986Z,17.7
2022-08-14T00:46:02.980Z,17.71
2022-08-14T00:47:02.988Z,17.62
2022-08-14T00:48:02.999Z,17.5
2022-08-14T00:49:03.033Z,17.45
2022-08-14T00:50:02.983Z,17.44
2022-08-14T00:51:02.983Z,17.44
2022-08-14T00:52:02.991Z,17.44
2022-08-14T00:53:02.992Z,17.46
2022-08-14T00:54:03.007Z,17.5
2022-08-14T00:55:02.980Z,17.64
2022-08-14T00:56:06.867Z,17.66
2022-08-14T00:57:02.983Z,17.67
2022-08-14T00:58:02.987Z,17.6
2022-08-14T00:59:02.990Z,17.55
2022-08-14T01:00:02.982Z,17.68
2022-08-14T01:01:03.013Z,17.64
2022-08-14T01:02:02.984Z,17.54
2022-08-14T01:03:02.996Z,17.46
2022-08-14T01:04:02.993Z,17.37
2022-08-14T01:05:02.983Z,17.37
2022-08-14T01:06:02.991Z,17.43
2022-08-14T01:07:07.359Z,17.43
2022-08-14T01:08:03.298Z,17.49
2022-08-14T01:09:02.991Z,17.46
2022-08-14T01:10:02.992Z,17.42
2022-08-14T01:11:02.987Z,17.38
2022-08-14T01:12:03.523Z,17.41
2022-08-14T01:13:02.979Z,17.52
2022-08-14T01:14:18.125Z,17.55
2022-08-14T01:15:02.990Z,17.53
2022-08-14T01:16:03.130Z,17.12
2022-08-14T01:17:03.015Z,17.57
2022-08-14T01:18:03.022Z,17.58
2022-08-14T01:19:03.036Z,17.52
2022-08-14T01:20:02.979Z,17.52
2022-08-14T01:21:02.983Z,17.48
2022-08-14T01:22:02.995Z,17.49
2022-08-14T01:23:02.977Z,17.58
2022-08-14T01:24:02.989Z,17.49
2022-08-14T01:25:03.061Z,17.43
2022-08-14T01:26:02.986Z,17.41
2022-08-14T01:27:02.999Z,17.42
2022-08-14T01:28:02.991Z,17.41
2022-08-14T01:29:03.012Z,17.45
2022-08-14T01:30:04.568Z,17.52
2022-08-14T01:31:02.988Z,17.74
2022-08-14T01:32:02.984Z,17.94
2022-08-14T01:33:02.998Z,17.91
2022-08-14T01:35:17.422Z,17.79
2022-08-14T01:35:17.904Z,17.76
2022-08-14T01:36:05.355Z,17.78
2022-08-14T01:37:02.995Z,17.78
2022-08-14T01:38:02.993Z,17.78
2022-08-14T01:39:03.001Z,17.72
2022-08-14T01:40:02.984Z,17.69
2022-08-14T01:41:02.987Z,17.69
2022-08-14T01:42:02.977Z,17.61
2022-08-14T01:43:02.982Z,17.62
2022-08-14T01:44:03.001Z,17.69
2022-08-14T01:45:04.247Z,17.67
2022-08-14T01:46:06.927Z,17.73
2022-08-14T01:47:05.963Z,17.73
2022-08-14T01:48:03.873Z,17.94
2022-08-14T01:49:02.994Z,17.98
2022-08-14T01:50:02.988Z,17.92
2022-08-14T01:51:02.979Z,17.92
2022-08-14T01:52:02.989Z,17.92
2022-08-14T01:53:03.269Z,17.81
2022-08-14T01:54:02.996Z,17.73
2022-08-14T01:55:02.981Z,17.63
2022-08-14T01:56:02.984Z,17.57
2022-08-14T01:57:02.979Z,17.66
2022-08-14T01:58:19.689Z,17.56
2022-08-14T01:59:03.013Z,17.46
2022-08-14T02:00:03.181Z,17.31
2022-08-14T02:01:03.033Z,17.23
2022-08-14T02:02:03.033Z,17.25
2022-08-14T02:03:03.742Z,17.31
2022-08-14T02:04:03.001Z,17.35
2022-08-14T02:05:02.981Z,17.31
2022-08-14T02:06:04.040Z,17.32
2022-08-14T02:07:02.990Z,17.31
2022-08-14T02:08:09.688Z,17.51
2022-08-14T02:09:02.996Z,17.39
2022-08-14T02:10:02.983Z,17.35
2022-08-14T02:11:02.980Z,17.28
2022-08-14T02:12:02.979Z,17.28
2022-08-14T02:13:03.004Z,17.33
2022-08-14T02:14:07.252Z,17.52
2022-08-14T02:15:02.980Z,17.69
2022-08-14T02:16:21.923Z,17.48
2022-08-14T02:17:02.985Z,17.48
2022-08-14T02:18:03.009Z,17.53
2022-08-14T02:19:03.013Z,17.51
2022-08-14T02:20:03.088Z,17.41
2022-08-14T02:21:02.999Z,17.41
2022-08-14T02:22:03.420Z,17.41
2022-08-14T02:23:02.979Z,17.2
2022-08-14T02:24:02.992Z,17.24
2022-08-14T02:25:02.991Z,17.24
2022-08-14T02:26:24.282Z,17.1
2022-08-14T02:28:23.429Z,17.04
2022-08-14T02:28:24.312Z,17.06
2022-08-14T02:29:03.374Z,17.06
2022-08-14T02:30:03.115Z,17.05
2022-08-14T02:31:02.980Z,17.03
2022-08-14T02:32:02.988Z,16.99
2022-08-14T02:33:02.990Z,17.07
2022-08-14T02:34:02.999Z,17.1
2022-08-14T02:35:03.012Z,17.09
2022-08-14T02:36:05.275Z,17.06
2022-08-14T02:37:06.758Z,17.08
2022-08-14T02:38:04.099Z,17.22
2022-08-14T02:39:02.997Z,17.06
2022-08-14T02:40:05.607Z,16.99
2022-08-14T02:41:02.993Z,17.17
2022-08-14T02:42:04.199Z,17.13
2022-08-14T02:43:03.686Z,17.1
2022-08-14T02:44:02.997Z,17.1
2022-08-14T02:45:02.983Z,17.03
2022-08-14T02:46:02.978Z,17.17
2022-08-14T02:47:02.994Z,17.08
2022-08-14T02:48:02.997Z,17.1
2022-08-14T02:49:06.307Z,17.17
2022-08-14T02:50:02.979Z,17.2
2022-08-14T02:51:02.983Z,17.21
2022-08-14T02:52:02.992Z,17.2
2022-08-14T02:53:03.515Z,17.2
2022-08-14T02:54:03.700Z,17.09
2022-08-14T02:55:02.981Z,16.99
2022-08-14T02:56:10.214Z,16.96
2022-08-14T02:57:16.132Z,16.96
2022-08-14T02:58:05.994Z,16.96
2022-08-14T02:59:05.460Z,17.03
2022-08-14T03:00:02.991Z,16.96
2022-08-14T03:01:03.043Z,17.05
2022-08-14T03:02:03.106Z,17.21
2022-08-14T03:03:07.806Z,17.21
2022-08-14T03:04:03.004Z,17.21
2022-08-14T03:05:02.986Z,17.21
2022-08-14T03:06:02.989Z,16.99
2022-08-14T03:07:07.108Z,16.96
2022-08-14T03:08:02.977Z,16.92
2022-08-14T03:09:02.988Z,16.91
2022-08-14T03:10:28.128Z,16.9
2022-08-14T03:11:02.976Z,16.91
2022-08-14T03:12:05.025Z,16.85
2022-08-14T03:13:02.974Z,16.86
2022-08-14T03:14:02.993Z,16.88
2022-08-14T03:15:02.989Z,16.91
2022-08-14T03:16:09.030Z,16.88
2022-08-14T03:17:02.973Z,16.89
2022-08-14T03:18:03.012Z,16.8
2022-08-14T03:19:02.997Z,16.81
2022-08-14T03:20:02.977Z,16.79
2022-08-14T03:21:02.982Z,16.92
2022-08-14T03:22:02.981Z,16.92
2022-08-14T03:23:04.473Z,16.76
2022-08-14T03:24:02.999Z,16.83
2022-08-14T03:25:02.974Z,16.74
2022-08-14T03:26:02.998Z,16.69
2022-08-14T03:27:02.982Z,16.64
2022-08-14T03:28:03.006Z,16.64
2022-08-14T03:29:02.981Z,16.64
2022-08-14T03:30:05.354Z,16.84
2022-08-14T03:31:02.976Z,16.94
2022-08-14T03:32:03.482Z,16.88
2022-08-14T03:33:02.995Z,16.88
2022-08-14T03:34:02.989Z,16.97
2022-08-14T03:35:02.974Z,16.97
2022-08-14T03:37:28.327Z,17.12
2022-08-14T03:37:39.071Z,16.88
2022-08-14T03:39:11.719Z,16.72
2022-08-14T03:39:14.627Z,16.76
2022-08-14T03:40:03.031Z,16.72
2022-08-14T03:41:02.975Z,16.77
2022-08-14T03:42:02.977Z,16.77
2022-08-14T03:43:02.983Z,16.77
2022-08-14T03:45:18.683Z,16.62
2022-08-14T03:45:27.034Z,16.59
2022-08-14T03:46:02.983Z,16.58
2022-08-14T03:47:03.348Z,16.46
2022-08-14T03:48:02.995Z,16.35
2022-08-14T03:49:03.070Z,16.33
2022-08-14T03:50:02.988Z,16.26
2022-08-14T03:51:02.987Z,16.23
2022-08-14T03:52:02.984Z,16.29
2022-08-14T03:53:03.279Z,16.26
2022-08-14T03:54:02.994Z,16.23
2022-08-14T03:55:02.979Z,16.15
2022-08-14T03:56:02.980Z,16.13
2022-08-14T03:57:03.524Z,16.14
2022-08-14T03:58:02.978Z,16.14
2022-08-14T03:59:02.992Z,16.14
2022-08-14T04:00:03.011Z,16.08
2022-08-14T04:01:03.010Z,16.08
2022-08-14T04:02:04.567Z,16.08
2022-08-14T04:03:02.989Z,16.09
2022-08-14T04:04:02.999Z,16.11
2022-08-14T04:05:12.360Z,16.11
2022-08-14T04:06:02.980Z,16.11
2022-08-14T04:07:02.978Z,16.24
2022-08-14T04:08:22.803Z,16.27
2022-08-14T04:09:02.998Z,16.25
2022-08-14T04:10:02.986Z,16.31
2022-08-14T04:11:07.834Z,16.44
2022-08-14T04:12:02.977Z,16.6
2022-08-14T04:13:03.069Z,16.52
2022-08-14T04:14:02.996Z,16.52
2022-08-14T04:15:02.976Z,16.65
2022-08-14T04:16:04.976Z,16.73
2022-08-14T04:17:02.983Z,16.73
2022-08-14T04:18:03.006Z,16.69
2022-08-14T04:19:03.001Z,16.77
2022-08-14T04:20:02.979Z,16.77
2022-08-14T04:21:04.025Z,16.91
2022-08-14T04:22:04.273Z,16.91
2022-08-14T04:23:02.975Z,16.87
2022-08-14T04:24:02.991Z,16.99
2022-08-14T04:25:05.129Z,17.1
2022-08-14T04:26:02.973Z,16.94
2022-08-14T04:27:02.985Z,16.95
2022-08-14T04:28:03.554Z,17
2022-08-14T04:29:14.988Z,17.12
2022-08-14T04:30:02.974Z,17.11
2022-08-14T04:31:02.978Z,17.21
2022-08-14T04:33:01.131Z,17.31
2022-08-14T04:33:07.358Z,17.31
2022-08-14T04:34:02.990Z,17.31
2022-08-14T04:35:07.709Z,17.35
2022-08-14T04:36:02.986Z,17.46
2022-08-14T04:37:02.974Z,17.47
2022-08-14T04:38:02.975Z,17.58
2022-08-14T04:39:02.997Z,17.68
2022-08-14T04:40:03.259Z,17.89
2022-08-14T04:41:03.009Z,17.89
2022-08-14T04:42:02.975Z,17.91
2022-08-14T04:43:02.994Z,17.94
2022-08-14T04:44:02.988Z,17.89
2022-08-14T04:45:02.987Z,17.92
2022-08-14T04:46:02.978Z,18.05
2022-08-14T04:47:02.972Z,18.02
2022-08-14T04:48:02.993Z,17.91
2022-08-14T04:49:03.007Z,17.82
2022-08-14T04:50:03.406Z,17.77
2022-08-14T04:51:03.377Z,17.75
2022-08-14T04:52:03.137Z,17.8
2022-08-14T04:53:02.978Z,17.67
2022-08-14T04:54:02.987Z,17.64
2022-08-14T04:55:02.999Z,17.62
2022-08-14T04:56:02.975Z,17.49
2022-08-14T04:57:02.987Z,17.65
2022-08-14T04:58:02.980Z,17.65
2022-08-14T04:59:03.817Z,17.55
2022-08-14T05:00:02.983Z,17.58
2022-08-14T05:01:02.977Z,17.51
2022-08-14T05:02:03.019Z,17.44
2022-08-14T05:03:03.007Z,17.67
2022-08-14T05:04:02.981Z,17.67
2022-08-14T05:05:02.988Z,17.68
2022-08-14T05:06:03.193Z,17.85
2022-08-14T05:07:02.982Z,17.98
2022-08-14T05:08:02.979Z,17.98
2022-08-14T05:09:03.010Z,18.05
2022-08-14T05:10:13.250Z,18.04
2022-08-14T05:11:02.973Z,17.98
2022-08-14T05:13:11.715Z,18.03
2022-08-14T05:13:13.281Z,18.13
2022-08-14T05:14:17.326Z,18.67
2022-08-14T05:15:02.981Z,17.91
2022-08-14T05:16:02.983Z,18.19
2022-08-14T05:17:02.989Z,18.4
2022-08-14T05:18:16.875Z,18.61
2022-08-14T05:19:24.899Z,18.61
2022-08-14T05:21:04.934Z,18.52
2022-08-14T05:21:54.493Z,18.55
2022-08-14T05:22:15.775Z,18.55
2022-08-14T05:23:03.001Z,18.91
2022-08-14T05:24:03.004Z,18.97
2022-08-14T05:25:02.987Z,19.14
2022-08-14T05:26:02.992Z,19.14
2022-08-14T05:27:02.984Z,19.14
2022-08-14T05:28:02.978Z,19.15
2022-08-14T05:29:03.003Z,19.21
2022-08-14T05:30:02.981Z,19.25
2022-08-14T05:31:02.984Z,19.31
2022-08-14T05:32:02.994Z,19.33
2022-08-14T05:33:02.988Z,19.33
2022-08-14T05:34:02.999Z,19.36
2022-08-14T05:35:02.975Z,19.39
2022-08-14T05:36:02.980Z,19.36
2022-08-14T05:37:03.481Z,19.26
2022-08-14T05:38:02.979Z,19.26
2022-08-14T05:39:03.007Z,19.26
2022-08-14T05:40:03.053Z,19.23
2022-08-14T05:41:02.974Z,19.49
2022-08-14T05:42:09.870Z,19.49
2022-08-14T05:43:02.978Z,19.32
2022-08-14T05:44:02.987Z,19.18
2022-08-14T05:45:04.203Z,19.36
2022-08-14T05:46:02.988Z,19.36
2022-08-14T05:47:02.976Z,19.57
2022-08-14T05:48:02.995Z,19.61
2022-08-14T05:49:02.990Z,19.54
2022-08-14T05:50:02.987Z,19.46
2022-08-14T05:51:02.977Z,19.45
2022-08-14T05:52:02.987Z,19.52
2022-08-14T05:53:02.977Z,19.66
2022-08-14T05:54:10.185Z,19.54
2022-08-14T05:55:03.003Z,19.54
2022-08-14T05:56:02.985Z,19.79
2022-08-14T05:57:02.990Z,19.74
2022-08-14T05:58:02.993Z,19.5
2022-08-14T05:59:02.995Z,19.39
2022-08-14T06:00:02.984Z,19.54
2022-08-14T06:01:02.986Z,19.37
2022-08-14T06:05:03.090Z,19.28
2022-08-14T06:06:02.984Z,19.44
2022-08-14T06:07:02.973Z,19.44
2022-08-14T06:08:02.995Z,19.44
2022-08-14T06:09:02.990Z,19.72
2022-08-14T06:10:04.014Z,19.89
2022-08-14T06:11:02.981Z,20.03
2022-08-14T06:12:02.976Z,20.11
2022-08-14T06:13:03.089Z,20.17
2022-08-14T06:14:02.999Z,20.01
2022-08-14T06:15:02.982Z,20.01
2022-08-14T06:16:02.979Z,19.97
2022-08-14T06:17:02.978Z,20.08
2022-08-14T06:18:02.982Z,20.13
2022-08-14T06:19:03.061Z,20.22
2022-08-14T06:20:02.979Z,20.25
2022-08-14T06:21:02.977Z,20.34
2022-08-14T06:22:02.998Z,20.24
2022-08-14T06:23:02.984Z,20.14
2022-08-14T06:24:02.985Z,20.17
2022-08-14T06:25:02.981Z,20.13
2022-08-14T06:26:02.978Z,20.19
2022-08-14T06:27:04.690Z,20.27
2022-08-14T06:28:04.086Z,20.5
2022-08-14T06:29:02.996Z,20.62
2022-08-14T06:30:02.984Z,20.62
2022-08-14T06:31:02.979Z,20.74
2022-08-14T06:32:37.596Z,20.85
2022-08-14T06:33:06.739Z,21
2022-08-14T06:35:03.751Z,21
2022-08-14T06:35:12.175Z,21.1
2022-08-14T06:36:02.981Z,21.05
2022-08-14T06:37:02.982Z,20.93
2022-08-14T06:38:04.603Z,20.86
2022-08-14T06:39:02.993Z,20.86
2022-08-14T06:40:03.025Z,20.86
2022-08-14T06:41:02.980Z,20.56
2022-08-14T06:42:02.984Z,20.64
2022-08-14T06:43:03.291Z,20.53
2022-08-14T06:44:02.994Z,20.52
2022-08-14T06:45:03.022Z,20.6
2022-08-14T06:46:03.177Z,20.55
2022-08-14T06:47:03.292Z,20.54
2022-08-14T06:48:02.984Z,20.59
2022-08-14T06:49:02.989Z,20.63
2022-08-14T06:50:03.008Z,20.76
2022-08-14T06:51:02.976Z,20.76
2022-08-14T06:52:02.978Z,20.8
2022-08-14T06:53:02.988Z,20.8
2022-08-14T06:54:02.990Z,20.93
2022-08-14T06:55:02.975Z,21.09
2022-08-14T06:56:02.981Z,21.16
2022-08-14T06:57:02.978Z,21.37
2022-08-14T06:58:03.240Z,21.4
2022-08-14T06:59:02.989Z,21.4
2022-08-14T07:00:02.986Z,21.54
2022-08-14T07:01:03.001Z,21.41
2022-08-14T07:02:02.996Z,21.3
2022-08-14T07:03:02.984Z,21.3
2022-08-14T07:04:02.992Z,21.29
2022-08-14T07:05:05.446Z,21.32
2022-08-14T07:06:02.981Z,21.36
2022-08-14T07:07:04.636Z,21.53
2022-08-14T07:08:02.973Z,21.69
2022-08-14T07:09:02.985Z,21.67
2022-08-14T07:10:03.005Z,21.67
2022-08-14T07:11:02.982Z,21.76
2022-08-14T07:12:02.974Z,21.84
2022-08-14T07:13:04.165Z,21.86
2022-08-14T07:14:02.984Z,21.93
2022-08-14T07:15:02.991Z,22.06
2022-08-14T07:16:05.605Z,22.06
2022-08-14T07:17:02.977Z,21.97
2022-08-14T07:18:03.092Z,22.09
2022-08-14T07:19:03.003Z,22.22
2022-08-14T07:20:02.982Z,22.31
2022-08-14T07:21:02.980Z,22.27
2022-08-14T07:22:05.410Z,22.31
2022-08-14T07:23:07.725Z,22.31
2022-08-14T07:24:02.988Z,22.36
2022-08-14T07:25:02.989Z,22.36
2022-08-14T07:26:02.978Z,22.42
2022-08-14T07:27:03.008Z,22.15
2022-08-14T07:28:02.977Z,22.15
2022-08-14T07:29:02.988Z,22.39
2022-08-14T07:30:03.009Z,22.39
2022-08-14T07:31:04.844Z,22.38
2022-08-14T07:32:02.985Z,22.52
2022-08-14T07:33:02.982Z,22.52
2022-08-14T07:34:04.082Z,22.67
2022-08-14T07:35:03.011Z,22.53
2022-08-14T07:36:03.374Z,22.62
2022-08-14T07:37:02.988Z,22.83
2022-08-14T07:38:03.001Z,22.66
2022-08-14T07:39:13.160Z,22.73
2022-08-14T07:40:03.086Z,22.84
2022-08-14T07:41:03.007Z,22.84
2022-08-14T07:42:02.997Z,22.84
2022-08-14T07:47:03.616Z,22.81
2022-08-14T07:48:02.976Z,22.81
2022-08-14T07:49:03.017Z,22.7
2022-08-14T07:50:02.998Z,22.79
2022-08-14T07:51:10.553Z,22.79
2022-08-14T07:52:03.330Z,22.9
2022-08-14T07:53:02.988Z,22.85
2022-08-14T07:54:03.481Z,22.93
2022-08-14T07:55:02.989Z,22.97
2022-08-14T07:56:22.134Z,22.88
2022-08-14T07:57:06.624Z,22.88
2022-08-14T07:58:02.983Z,23.11
2022-08-14T07:59:02.984Z,23.1
2022-08-14T08:00:03.021Z,23.2
2022-08-14T08:01:02.981Z,23.1
2022-08-14T08:02:02.985Z,23.29
2022-08-14T08:03:03.028Z,23.22
2022-08-14T08:04:03.380Z,23.24
2022-08-14T08:05:02.981Z,23.26
2022-08-14T08:06:02.985Z,23.18
2022-08-14T08:07:02.995Z,23.26
2022-08-14T08:08:02.979Z,23.24
2022-08-14T08:09:03.509Z,23.25
2022-08-14T08:10:03.100Z,23.17
2022-08-14T08:11:03.752Z,23.15
2022-08-14T08:12:04.759Z,23.35
2022-08-14T08:13:02.990Z,23.34
2022-08-14T08:14:02.988Z,23.46
2022-08-14T08:15:07.229Z,23.29
2022-08-14T08:16:02.982Z,23.31
2022-08-14T08:17:02.980Z,23.38
2022-08-14T08:18:04.037Z,23.41
2022-08-14T08:19:12.863Z,23.99
2022-08-14T08:20:03.001Z,23.55
2022-08-14T08:21:02.992Z,23.6
2022-08-14T08:22:02.980Z,23.6
2022-08-14T08:23:06.291Z,23.6
2022-08-14T08:24:03.633Z,23.6
2022-08-14T08:25:02.997Z,23.69
2022-08-14T08:26:02.978Z,23.69
2022-08-14T08:27:02.994Z,23.9
2022-08-14T08:28:07.991Z,23.86
2022-08-14T08:29:03.058Z,23.85
2022-08-14T08:30:03.010Z,24.15
2022-08-14T08:31:02.978Z,24.18
2022-08-14T08:32:06.071Z,24.26
2022-08-14T08:33:03.099Z,24.17
2022-08-14T08:34:02.992Z,24.14
2022-08-14T08:35:03.012Z,24.16
2022-08-14T08:36:02.979Z,24.09
2022-08-14T08:37:07.253Z,24.25
2022-08-14T08:38:14.058Z,24.25
2022-08-14T08:39:18.620Z,24.25
2022-08-14T08:40:04.239Z,25.1
2022-08-14T08:41:02.978Z,25.42
2022-08-14T08:42:02.976Z,25.42
2022-08-14T08:43:02.981Z,25.48
2022-08-14T08:44:02.982Z,25.04
2022-08-14T08:45:03.001Z,25.07
2022-08-14T08:46:03.004Z,25.06
2022-08-14T08:47:03.644Z,25
2022-08-14T08:48:02.978Z,24.49
2022-08-14T08:49:03.001Z,24.49
2022-08-14T08:50:02.995Z,25.09
2022-08-14T08:51:02.994Z,25.39
2022-08-14T08:52:02.987Z,25.38
2022-08-14T08:53:02.984Z,25.16
2022-08-14T08:54:02.984Z,25.29
2022-08-14T08:55:04.671Z,25.28
2022-08-14T08:56:03.037Z,25.28
2022-08-14T08:57:02.982Z,25.38
2022-08-14T08:58:02.973Z,25.38
2022-08-14T08:59:02.989Z,25.56
2022-08-14T09:00:03.004Z,25.61
2022-08-14T09:01:03.071Z,25.47
2022-08-14T09:02:05.015Z,25.58
2022-08-14T09:03:02.985Z,26.04
2022-08-14T09:04:02.997Z,25.81
2022-08-14T09:05:02.997Z,26.15
2022-08-14T09:06:02.997Z,26.35
2022-08-14T09:07:10.923Z,26.22
2022-08-14T09:08:02.982Z,25.94
2022-08-14T09:09:02.982Z,26.19
2022-08-14T09:10:03.675Z,26.2
2022-08-14T09:11:02.990Z,26.06
2022-08-14T09:12:02.973Z,26.29
2022-08-14T09:13:02.979Z,26.19
2022-08-14T09:14:02.982Z,26.02
2022-08-14T09:15:03.033Z,26.09
2022-08-14T09:16:18.561Z,25.59
2022-08-14T09:17:02.988Z,25.59
2022-08-14T09:18:02.985Z,25.36
2022-08-14T09:19:03.029Z,25.61
2022-08-14T09:20:04.174Z,25.47
2022-08-14T09:21:02.989Z,26.05
2022-08-14T09:22:02.987Z,26.1
2022-08-14T09:23:02.973Z,26.26
2022-08-14T09:24:28.281Z,26.47
2022-08-14T09:25:02.993Z,26.29
2022-08-14T09:26:05.111Z,26.12
2022-08-14T09:27:02.977Z,26.24
2022-08-14T09:28:02.979Z,26.34
2022-08-14T09:29:02.985Z,26.65
2022-08-14T09:30:31.287Z,26.37
2022-08-14T09:31:07.288Z,26.03
2022-08-14T09:32:02.983Z,26.42
2022-08-14T09:33:09.104Z,26.43
2022-08-14T09:34:09.274Z,26.62
2022-08-14T09:35:02.991Z,26.62
2022-08-14T09:36:02.983Z,26.47
2022-08-14T09:37:02.979Z,26.9
2022-08-14T09:38:02.978Z,26.53
2022-08-14T09:39:02.991Z,26.64
2022-08-14T09:40:03.867Z,26.68
2022-08-14T09:41:02.979Z,26.88
2022-08-14T09:42:20.220Z,26.82
2022-08-14T09:43:02.973Z,26.8
2022-08-14T09:44:06.506Z,26.93
2022-08-14T09:45:08.505Z,27.17
2022-08-14T09:46:02.986Z,26.84
2022-08-14T09:47:02.986Z,26.86
2022-08-14T09:48:02.974Z,26.51
2022-08-14T09:49:02.995Z,26.49
2022-08-14T09:50:02.991Z,26.56
2022-08-14T09:52:02.990Z,26.48
2022-08-14T09:53:04.002Z,26.95
2022-08-14T09:54:18.139Z,26.95
2022-08-14T09:55:03.049Z,26.97
2022-08-14T09:56:02.994Z,27.03
2022-08-14T09:57:02.984Z,27.03
2022-08-14T09:58:02.984Z,28.34
2022-08-14T09:59:02.978Z,28.22
2022-08-14T10:00:02.994Z,28.4
2022-08-14T10:01:06.152Z,28.18
2022-08-14T10:02:03.021Z,27.73
2022-08-14T10:03:05.670Z,27.73
2022-08-14T10:04:02.996Z,27.64
2022-08-14T10:05:02.992Z,27.62
2022-08-14T10:06:02.980Z,27.4
2022-08-14T10:07:03.543Z,27.21
2022-08-14T10:08:03.040Z,27.21
2022-08-14T10:09:02.984Z,26.38
2022-08-14T10:10:02.996Z,26.3
2022-08-14T10:11:03.335Z,26.35
2022-08-14T10:12:04.276Z,26.55
2022-08-14T10:13:02.974Z,26.57
2022-08-14T10:14:03.004Z,26.8
2022-08-14T10:15:02.994Z,26.78
2022-08-14T10:16:02.984Z,26.46
2022-08-14T10:17:04.781Z,26.48
2022-08-14T10:18:02.987Z,26.21
2022-08-14T10:19:02.990Z,26.43
2022-08-14T10:20:03.006Z,26.03
2022-08-14T10:21:02.978Z,25.85
2022-08-14T10:23:12.078Z,25.81
2022-08-14T10:23:12.191Z,25.61
2022-08-14T10:24:02.976Z,26.07
2022-08-14T10:25:03.001Z,26.07
2022-08-14T10:26:02.973Z,26.24
2022-08-14T10:27:02.997Z,26.24
2022-08-14T10:28:02.996Z,26.23
2022-08-14T10:29:19.453Z,25.68
2022-08-14T10:30:02.992Z,25.71
2022-08-14T10:31:02.991Z,26.04
2022-08-14T10:32:02.982Z,26.74
2022-08-14T10:33:02.986Z,25.36
2022-08-14T10:34:02.998Z,25.43
2022-08-14T10:35:02.993Z,25.48
2022-08-14T10:36:03.840Z,25.48
2022-08-14T10:37:02.981Z,25.66
2022-08-14T10:38:02.981Z,25.57
2022-08-14T10:39:02.988Z,25.71
2022-08-14T10:40:05.744Z,25.87
2022-08-14T10:41:03.098Z,25.71
2022-08-14T10:42:02.971Z,25.99
2022-08-14T10:43:02.979Z,26.27
2022-08-14T10:44:02.974Z,26.27
2022-08-14T10:45:02.984Z,26.14
2022-08-14T10:46:58.964Z,26.18
2022-08-14T10:47:39.186Z,25.94
2022-08-14T10:48:09.711Z,26.02
2022-08-14T10:49:04.096Z,25.91
2022-08-14T10:50:02.990Z,25.9
2022-08-14T10:51:02.978Z,25.61
2022-08-14T10:52:02.991Z,25.49
2022-08-14T10:53:02.974Z,25.49
2022-08-14T10:54:25.897Z,25.34
2022-08-14T10:55:02.987Z,25.31
2022-08-14T10:56:03.619Z,25.26
2022-08-14T10:57:22.119Z,25.73
2022-08-14T10:58:21.040Z,25.91
2022-08-14T11:03:36.117Z,25.67
2022-08-14T11:04:25.918Z,25.66
2022-08-14T11:05:21.087Z,25.41
2022-08-14T11:06:20.979Z,25.41
2022-08-14T11:07:21.346Z,25.41
2022-08-14T11:08:20.997Z,25.41
2022-08-14T11:09:21.003Z,25.41
2022-08-14T11:10:21.035Z,25.41
2022-08-14T11:11:20.983Z,25.41
2022-08-14T11:12:34.567Z,25.41
2022-08-14T11:13:20.987Z,25.41
2022-08-14T11:14:22.637Z,25.41
2022-08-14T11:15:20.996Z,25.41
2022-08-14T11:16:20.985Z,25.41
2022-08-14T11:17:21.756Z,25.41
2022-08-14T11:18:32.370Z,25.41
2022-08-14T11:19:21.172Z,25.41
2022-08-14T11:20:21.027Z,25.41
2022-08-14T11:21:21.343Z,25.41
2022-08-14T11:22:55.964Z,25.41
2022-08-14T11:23:20.987Z,25.41
2022-08-14T11:24:54.182Z,25.41
2022-08-14T11:25:21.393Z,25.41
2022-08-14T11:26:20.997Z,25.41
2022-08-14T11:27:22.129Z,25.41
2022-08-14T11:28:20.982Z,25.41
2022-08-14T11:29:20.968Z,25.41
2022-08-14T11:30:49.802Z,25.41
2022-08-14T11:31:22.023Z,25.41
2022-08-14T11:32:20.994Z,25.41
2022-08-14T11:33:20.983Z,25.41
2022-08-14T11:34:31.871Z,25.41
2022-08-14T11:35:21.001Z,25.41
2022-08-14T11:36:20.975Z,25.41
2022-08-14T11:37:31.592Z,25.41
2022-08-14T11:38:20.961Z,25.41
2022-08-14T11:39:22.912Z,25.41
2022-08-14T11:40:28.411Z,25.41
2022-08-14T11:41:20.978Z,25.41
2022-08-14T11:42:57.730Z,25.41
2022-08-14T11:43:29.366Z,25.41
2022-08-14T11:44:45.593Z,25.41
2022-08-14T11:45:29.933Z,25.41
2022-08-14T11:46:30.259Z,25.41
2022-08-14T11:47:27.366Z,26.39
2022-08-14T11:49:18.953Z,26.45
2022-08-14T11:50:33.832Z,26.25
2022-08-14T11:51:17.708Z,26.32
2022-08-14T11:52:17.726Z,26.52
2022-08-14T11:53:17.682Z,26.67
2022-08-14T11:54:19.538Z,26.38
2022-08-14T11:55:21.153Z,25.92
2022-08-14T11:56:17.716Z,26.28
2022-08-14T11:57:18.629Z,26.39
2022-08-14T11:58:23.781Z,26.21
2022-08-14T11:59:17.697Z,26.07
2022-08-14T12:00:19.746Z,26.1
2022-08-14T12:01:17.699Z,26.21
2022-08-14T12:03:10.963Z,26.31
2022-08-14T12:03:26.931Z,26.29
2022-08-14T12:04:32.479Z,26.26
2022-08-14T12:05:17.768Z,26.3
2022-08-14T12:06:28.589Z,26.27
2022-08-14T12:07:17.696Z,26.13
2022-08-14T12:08:18.118Z,26.06
2022-08-14T12:09:17.679Z,26.06
2022-08-14T12:10:27.145Z,26.17
2022-08-14T12:11:17.702Z,26
2022-08-14T12:12:35.553Z,26.14
2022-08-14T12:13:17.832Z,26.14
2022-08-14T12:14:30.981Z,26.13
2022-08-14T12:15:17.689Z,26.32
2022-08-14T12:16:20.881Z,26.54
2022-08-14T12:17:17.681Z,26.54
2022-08-14T12:18:19.594Z,26.47
2022-08-14T12:19:17.682Z,26.68
2022-08-14T12:20:32.065Z,26.93
2022-08-14T12:21:19.442Z,26.93
2022-08-14T12:22:29.511Z,27.04
2022-08-14T12:23:17.673Z,27.09
2022-08-14T12:24:36.693Z,26.95
2022-08-14T12:25:17.681Z,26.87
2022-08-14T12:26:39.378Z,26.75
2022-08-14T12:27:18.427Z,27.1
2022-08-14T12:28:26.777Z,27.26
2022-08-14T12:29:17.729Z,27.29
2022-08-14T12:30:20.997Z,27.11
2022-08-14T12:31:20.693Z,27.35
2022-08-14T12:32:17.668Z,27.35
2022-08-14T12:33:17.672Z,27.46
2022-08-14T12:34:20.419Z,27.87
2022-08-14T12:35:17.699Z,28
2022-08-14T12:36:20.511Z,27.83
2022-08-14T12:37:17.695Z,27.94
2022-08-14T12:38:19.538Z,27.74
2022-08-14T12:39:17.760Z,27.72
2022-08-14T12:40:20.712Z,27.57
2022-08-14T12:41:20.996Z,27.53
2022-08-14T12:42:34.266Z,27.33
2022-08-14T12:43:17.673Z,27.3
2022-08-14T12:44:20.393Z,27.01
2022-08-14T12:45:17.681Z,27.01
2022-08-14T12:46:26.641Z,27.01
2022-08-14T12:47:17.689Z,27.01
2022-08-14T12:48:21.802Z,27.18
2022-08-14T12:49:17.905Z,27.33
2022-08-14T12:50:17.704Z,27.57
2022-08-14T12:51:17.681Z,27.57
2022-08-14T12:52:17.692Z,27.76
2022-08-14T12:53:17.696Z,27.76
2022-08-14T12:54:27.403Z,27.54
2022-08-14T12:55:17.676Z,27.56
2022-08-14T12:56:32.669Z,27.25
2022-08-14T12:57:20.499Z,27.27
2022-08-14T12:58:35.155Z,27.17
2022-08-14T12:59:17.674Z,27.08
2022-08-14T13:00:23.629Z,27.23
2022-08-14T13:01:20.657Z,27.42
2022-08-14T13:02:17.760Z,26.92
2022-08-14T13:03:17.678Z,26.88
2022-08-14T13:04:17.680Z,27.16
2022-08-14T13:05:17.686Z,27.43
2022-08-14T13:06:17.709Z,27.11
2022-08-14T13:07:17.678Z,26.95
2022-08-14T13:08:33.551Z,26.8